sensor_id;sensor_type;location;lat;lon;timestamp;temperature;humidity
18252;DHT22;26917;52.328;20.878;2023-03-19T00:02:20;5.80;89.80
18252;DHT22;26917;52.328;20.878;2023-03-19T00:04:48;5.80;88.30
18252;DHT22;26917;52.328;20.878;2023-03-19T00:07:16;5.70;88.40
18252;DHT22;26917;52.328;20.878;2023-03-19T00:09:45;5.60;88.20
18252;DHT22;26917;52.328;20.878;2023-03-19T00:12:14;5.60;88.90
18252;DHT22;26917;52.328;20.878;2023-03-19T00:14:42;5.50;87.80
18252;DHT22;26917;52.328;20.878;2023-03-19T00:17:13;5.70;87.40
18252;DHT22;26917;52.328;20.878;2023-03-19T00:19:41;5.70;88.70
18252;DHT22;26917;52.328;20.878;2023-03-19T00:22:09;5.90;87.80
18252;DHT22;26917;52.328;20.878;2023-03-19T00:24:38;5.60;88.20
18252;DHT22;26917;52.328;20.878;2023-03-19T00:27:06;6.20;88.10
18252;DHT22;26917;52.328;20.878;2023-03-19T00:29:34;5.70;87.40
18252;DHT22;26917;52.328;20.878;2023-03-19T00:32:03;5.70;87.50
18252;DHT22;26917;52.328;20.878;2023-03-19T00:34:33;5.70;88.30
18252;DHT22;26917;52.328;20.878;2023-03-19T00:37:02;5.90;88.30
18252;DHT22;26917;52.328;20.878;2023-03-19T00:39:30;5.60;87.80
18252;DHT22;26917;52.328;20.878;2023-03-19T00:41:58;5.50;88.00
18252;DHT22;26917;52.328;20.878;2023-03-19T00:44:27;5.50;88.30
18252;DHT22;26917;52.328;20.878;2023-03-19T00:46:55;5.50;88.80
18252;DHT22;26917;52.328;20.878;2023-03-19T00:49:24;5.30;88.90
18252;DHT22;26917;52.328;20.878;2023-03-19T00:51:53;5.40;89.10
18252;DHT22;26917;52.328;20.878;2023-03-19T00:54:22;5.30;89.40
18252;DHT22;26917;52.328;20.878;2023-03-19T00:56:50;5.30;90.00
18252;DHT22;26917;52.328;20.878;2023-03-19T00:59:18;5.80;90.20
18252;DHT22;26917;52.328;20.878;2023-03-19T01:01:47;5.40;90.20
18252;DHT22;26917;52.328;20.878;2023-03-19T01:04:15;5.30;90.20
18252;DHT22;26917;52.328;20.878;2023-03-19T01:06:44;5.70;90.50
18252;DHT22;26917;52.328;20.878;2023-03-19T01:09:14;5.20;90.20
18252;DHT22;26917;52.328;20.878;2023-03-19T01:11:42;5.00;90.50
18252;DHT22;26917;52.328;20.878;2023-03-19T01:14:10;5.10;90.80
18252;DHT22;26917;52.328;20.878;2023-03-19T01:16:39;5.00;90.80
18252;DHT22;26917;52.328;20.878;2023-03-19T01:19:07;5.20;91.20
18252;DHT22;26917;52.328;20.878;2023-03-19T01:21:36;4.90;90.90
18252;DHT22;26917;52.328;20.878;2023-03-19T01:24:04;5.10;91.20
18252;DHT22;26917;52.328;20.878;2023-03-19T01:26:34;4.90;91.10
18252;DHT22;26917;52.328;20.878;2023-03-19T01:29:14;4.90;91.00
18252;DHT22;26917;52.328;20.878;2023-03-19T01:31:42;4.90;90.90
18252;DHT22;26917;52.328;20.878;2023-03-19T01:34:30;4.80;91.10
18252;DHT22;26917;52.328;20.878;2023-03-19T01:37:07;5.00;90.90
18252;DHT22;26917;52.328;20.878;2023-03-19T01:39:38;4.70;90.90
18252;DHT22;26917;52.328;20.878;2023-03-19T01:42:11;4.80;91.00
18252;DHT22;26917;52.328;20.878;2023-03-19T01:45:01;4.80;91.00
18252;DHT22;26917;52.328;20.878;2023-03-19T01:47:40;4.70;90.70
18252;DHT22;26917;52.328;20.878;2023-03-19T01:50:20;5.00;91.10
18252;DHT22;26917;52.328;20.878;2023-03-19T01:53:03;4.80;91.00
18252;DHT22;26917;52.328;20.878;2023-03-19T01:55:54;5.00;91.10
18252;DHT22;26917;52.328;20.878;2023-03-19T01:58:38;5.10;91.10
18252;DHT22;26917;52.328;20.878;2023-03-19T02:01:16;4.80;91.20
18252;DHT22;26917;52.328;20.878;2023-03-19T02:03:49;4.60;91.10
18252;DHT22;26917;52.328;20.878;2023-03-19T02:06:25;5.10;91.20
18252;DHT22;26917;52.328;20.878;2023-03-19T02:08:55;4.80;91.40
18252;DHT22;26917;52.328;20.878;2023-03-19T02:11:25;4.80;91.20
18252;DHT22;26917;52.328;20.878;2023-03-19T02:13:55;5.20;91.60
18252;DHT22;26917;52.328;20.878;2023-03-19T02:16:24;5.00;91.50
18252;DHT22;26917;52.328;20.878;2023-03-19T02:18:53;5.00;91.80
18252;DHT22;26917;52.328;20.878;2023-03-19T02:21:22;4.80;91.20
18252;DHT22;26917;52.328;20.878;2023-03-19T02:23:54;4.70;91.30
18252;DHT22;26917;52.328;20.878;2023-03-19T02:27:00;4.90;90.90
18252;DHT22;26917;52.328;20.878;2023-03-19T02:29:30;4.90;91.10
18252;DHT22;26917;52.328;20.878;2023-03-19T02:32:00;4.70;91.00
18252;DHT22;26917;52.328;20.878;2023-03-19T02:34:34;5.10;91.20
18252;DHT22;26917;52.328;20.878;2023-03-19T02:37:08;4.90;91.10
18252;DHT22;26917;52.328;20.878;2023-03-19T02:39:44;4.90;91.10
18252;DHT22;26917;52.328;20.878;2023-03-19T02:42:16;4.60;90.80
18252;DHT22;26917;52.328;20.878;2023-03-19T02:44:45;4.80;90.90
18252;DHT22;26917;52.328;20.878;2023-03-19T02:47:14;4.80;91.30
18252;DHT22;26917;52.328;20.878;2023-03-19T02:49:43;5.00;91.40
18252;DHT22;26917;52.328;20.878;2023-03-19T02:52:12;5.00;91.60
18252;DHT22;26917;52.328;20.878;2023-03-19T02:54:40;4.70;91.20
18252;DHT22;26917;52.328;20.878;2023-03-19T02:57:09;5.00;91.60
18252;DHT22;26917;52.328;20.878;2023-03-19T02:59:39;4.90;91.70
18252;DHT22;26917;52.328;20.878;2023-03-19T03:02:08;4.60;91.30
18252;DHT22;26917;52.328;20.878;2023-03-19T03:04:36;4.60;91.50
18252;DHT22;26917;52.328;20.878;2023-03-19T03:07:05;4.60;91.80
18252;DHT22;26917;52.328;20.878;2023-03-19T03:09:34;4.50;91.60
18252;DHT22;26917;52.328;20.878;2023-03-19T03:12:03;4.80;92.00
18252;DHT22;26917;52.328;20.878;2023-03-19T03:14:31;4.50;91.90
18252;DHT22;26917;52.328;20.878;2023-03-19T03:17:02;4.50;91.80
18252;DHT22;26917;52.328;20.878;2023-03-19T03:19:31;4.30;91.80
18252;DHT22;26917;52.328;20.878;2023-03-19T03:21:59;4.50;91.70
18252;DHT22;26917;52.328;20.878;2023-03-19T03:24:28;4.90;92.00
18252;DHT22;26917;52.328;20.878;2023-03-19T03:26:57;4.50;91.80
18252;DHT22;26917;52.328;20.878;2023-03-19T03:29:25;4.70;92.00
18252;DHT22;26917;52.328;20.878;2023-03-19T03:31:53;4.50;92.00
18252;DHT22;26917;52.328;20.878;2023-03-19T03:34:23;4.40;92.10
18252;DHT22;26917;52.328;20.878;2023-03-19T03:36:52;4.30;91.70
18252;DHT22;26917;52.328;20.878;2023-03-19T03:39:20;4.40;91.90
18252;DHT22;26917;52.328;20.878;2023-03-19T03:41:49;4.30;91.80
18252;DHT22;26917;52.328;20.878;2023-03-19T03:44:17;4.30;91.90
18252;DHT22;26917;52.328;20.878;2023-03-19T03:46:46;4.60;92.30
18252;DHT22;26917;52.328;20.878;2023-03-19T03:49:15;4.40;92.20
18252;DHT22;26917;52.328;20.878;2023-03-19T03:51:45;4.20;92.00
18252;DHT22;26917;52.328;20.878;2023-03-19T03:54:13;4.40;92.60
18252;DHT22;26917;52.328;20.878;2023-03-19T03:56:42;3.80;92.50
18252;DHT22;26917;52.328;20.878;2023-03-19T03:59:10;4.20;92.70
18252;DHT22;26917;52.328;20.878;2023-03-19T04:01:39;4.10;92.50
18252;DHT22;26917;52.328;20.878;2023-03-19T04:04:08;3.90;92.40
18252;DHT22;26917;52.328;20.878;2023-03-19T04:06:36;4.00;93.10
18252;DHT22;26917;52.328;20.878;2023-03-19T04:09:29;3.80;93.00
18252;DHT22;26917;52.328;20.878;2023-03-19T04:11:58;4.70;93.20
18252;DHT22;26917;52.328;20.878;2023-03-19T04:14:26;4.10;92.80
18252;DHT22;26917;52.328;20.878;2023-03-19T04:16:56;4.20;93.30
18252;DHT22;26917;52.328;20.878;2023-03-19T04:19:24;4.50;93.40
18252;DHT22;26917;52.328;20.878;2023-03-19T04:21:53;4.00;93.60
18252;DHT22;26917;52.328;20.878;2023-03-19T04:24:21;4.70;94.20
18252;DHT22;26917;52.328;20.878;2023-03-19T04:26:51;3.90;93.80
18252;DHT22;26917;52.328;20.878;2023-03-19T04:29:19;4.50;93.50
18252;DHT22;26917;52.328;20.878;2023-03-19T04:31:49;3.90;93.70
18252;DHT22;26917;52.328;20.878;2023-03-19T04:34:18;4.50;93.80
18252;DHT22;26917;52.328;20.878;2023-03-19T04:36:46;4.60;94.00
18252;DHT22;26917;52.328;20.878;2023-03-19T04:39:16;3.70;93.50
18252;DHT22;26917;52.328;20.878;2023-03-19T04:41:44;3.60;93.90
18252;DHT22;26917;52.328;20.878;2023-03-19T04:44:26;3.60;93.70
18252;DHT22;26917;52.328;20.878;2023-03-19T04:46:54;3.30;94.10
18252;DHT22;26917;52.328;20.878;2023-03-19T04:49:24;3.60;94.30
18252;DHT22;26917;52.328;20.878;2023-03-19T04:51:55;3.80;94.30
18252;DHT22;26917;52.328;20.878;2023-03-19T04:54:23;4.30;94.90
18252;DHT22;26917;52.328;20.878;2023-03-19T04:56:52;3.50;94.00
18252;DHT22;26917;52.328;20.878;2023-03-19T04:59:22;3.50;94.30
18252;DHT22;26917;52.328;20.878;2023-03-19T05:01:53;3.50;94.30
18252;DHT22;26917;52.328;20.878;2023-03-19T05:04:22;3.40;94.10
18252;DHT22;26917;52.328;20.878;2023-03-19T05:06:54;3.30;94.20
18252;DHT22;26917;52.328;20.878;2023-03-19T05:09:24;3.30;94.20
18252;DHT22;26917;52.328;20.878;2023-03-19T05:11:52;3.60;94.60
18252;DHT22;26917;52.328;20.878;2023-03-19T05:14:21;3.20;94.50
18252;DHT22;26917;52.328;20.878;2023-03-19T05:17:27;3.20;94.70
18252;DHT22;26917;52.328;20.878;2023-03-19T05:20:18;3.10;94.60
18252;DHT22;26917;52.328;20.878;2023-03-19T05:22:53;3.10;94.60
18252;DHT22;26917;52.328;20.878;2023-03-19T05:25:30;3.10;94.90
18252;DHT22;26917;52.328;20.878;2023-03-19T05:28:02;3.20;94.90
18252;DHT22;26917;52.328;20.878;2023-03-19T05:30:30;3.60;95.00
18252;DHT22;26917;52.328;20.878;2023-03-19T05:33:26;3.80;95.00
18252;DHT22;26917;52.328;20.878;2023-03-19T05:35:54;3.40;94.90
18252;DHT22;26917;52.328;20.878;2023-03-19T05:38:44;3.40;94.80
18252;DHT22;26917;52.328;20.878;2023-03-19T05:41:19;4.20;95.20
18252;DHT22;26917;52.328;20.878;2023-03-19T05:43:56;3.40;94.90
18252;DHT22;26917;52.328;20.878;2023-03-19T05:46:44;4.10;95.00
18252;DHT22;26917;52.328;20.878;2023-03-19T05:49:17;3.90;94.70
18252;DHT22;26917;52.328;20.878;2023-03-19T05:51:45;3.90;94.80
18252;DHT22;26917;52.328;20.878;2023-03-19T05:54:14;3.90;94.60
18252;DHT22;26917;52.328;20.878;2023-03-19T05:56:58;4.40;94.70
18252;DHT22;26917;52.328;20.878;2023-03-19T05:59:37;4.20;94.30
18252;DHT22;26917;52.328;20.878;2023-03-19T06:02:23;4.50;94.20
18252;DHT22;26917;52.328;20.878;2023-03-19T06:05:06;4.70;94.10
18252;DHT22;26917;52.328;20.878;2023-03-19T06:07:35;4.80;93.90
18252;DHT22;26917;52.328;20.878;2023-03-19T06:10:10;4.90;93.60
18252;DHT22;26917;52.328;20.878;2023-03-19T06:12:39;5.10;92.90
18252;DHT22;26917;52.328;20.878;2023-03-19T06:15:31;5.30;92.80
18252;DHT22;26917;52.328;20.878;2023-03-19T06:18:18;5.10;92.50
18252;DHT22;26917;52.328;20.878;2023-03-19T06:20:49;5.40;92.40
18252;DHT22;26917;52.328;20.878;2023-03-19T06:23:17;5.30;92.50
18252;DHT22;26917;52.328;20.878;2023-03-19T06:25:46;5.30;92.50
18252;DHT22;26917;52.328;20.878;2023-03-19T06:28:15;5.40;92.00
18252;DHT22;26917;52.328;20.878;2023-03-19T06:30:44;5.40;91.90
18252;DHT22;26917;52.328;20.878;2023-03-19T06:33:38;5.50;91.70
18252;DHT22;26917;52.328;20.878;2023-03-19T06:36:09;6.20;92.70
18252;DHT22;26917;52.328;20.878;2023-03-19T06:38:38;5.50;92.50
18252;DHT22;26917;52.328;20.878;2023-03-19T06:41:07;5.60;92.10
18252;DHT22;26917;52.328;20.878;2023-03-19T06:43:35;6.10;92.40
18252;DHT22;26917;52.328;20.878;2023-03-19T06:46:04;7.00;92.20
18252;DHT22;26917;52.328;20.878;2023-03-19T06:48:35;8.60;90.30
18252;DHT22;26917;52.328;20.878;2023-03-19T06:51:04;10.40;84.20
18252;DHT22;26917;52.328;20.878;2023-03-19T06:53:34;11.30;78.30
18252;DHT22;26917;52.328;20.878;2023-03-19T06:56:03;11.80;77.00
18252;DHT22;26917;52.328;20.878;2023-03-19T06:58:31;12.10;74.00
18252;DHT22;26917;52.328;20.878;2023-03-19T07:01:01;11.90;73.60
18252;DHT22;26917;52.328;20.878;2023-03-19T07:03:29;11.50;74.60
18252;DHT22;26917;52.328;20.878;2023-03-19T07:05:58;11.00;74.10
18252;DHT22;26917;52.328;20.878;2023-03-19T07:08:26;10.50;75.50
18252;DHT22;26917;52.328;20.878;2023-03-19T07:11:02;10.00;77.00
18252;DHT22;26917;52.328;20.878;2023-03-19T07:13:31;9.60;79.60
18252;DHT22;26917;52.328;20.878;2023-03-19T07:15:59;9.20;79.80
18252;DHT22;26917;52.328;20.878;2023-03-19T07:18:27;8.90;80.00
18252;DHT22;26917;52.328;20.878;2023-03-19T07:20:56;8.70;81.10
18252;DHT22;26917;52.328;20.878;2023-03-19T07:23:24;8.60;81.80
18252;DHT22;26917;52.328;20.878;2023-03-19T07:25:52;8.50;80.70
18252;DHT22;26917;52.328;20.878;2023-03-19T07:28:23;8.40;81.70
18252;DHT22;26917;52.328;20.878;2023-03-19T07:30:51;8.30;82.50
18252;DHT22;26917;52.328;20.878;2023-03-19T07:33:20;8.30;83.10
18252;DHT22;26917;52.328;20.878;2023-03-19T07:35:49;8.30;82.20
18252;DHT22;26917;52.328;20.878;2023-03-19T07:38:17;8.30;82.00
18252;DHT22;26917;52.328;20.878;2023-03-19T07:40:46;8.30;83.30
18252;DHT22;26917;52.328;20.878;2023-03-19T07:43:29;8.30;82.70
18252;DHT22;26917;52.328;20.878;2023-03-19T07:45:58;8.40;83.00
18252;DHT22;26917;52.328;20.878;2023-03-19T07:48:26;8.40;83.30
18252;DHT22;26917;52.328;20.878;2023-03-19T07:50:55;8.50;83.10
18252;DHT22;26917;52.328;20.878;2023-03-19T07:53:23;8.60;83.30
18252;DHT22;26917;52.328;20.878;2023-03-19T07:55:52;8.70;82.50
18252;DHT22;26917;52.328;20.878;2023-03-19T07:58:20;8.80;81.80
18252;DHT22;26917;52.328;20.878;2023-03-19T08:00:50;8.90;82.40
18252;DHT22;26917;52.328;20.878;2023-03-19T08:03:18;9.00;81.80
18252;DHT22;26917;52.328;20.878;2023-03-19T08:05:47;9.20;82.30
18252;DHT22;26917;52.328;20.878;2023-03-19T08:08:16;9.30;82.80
18252;DHT22;26917;52.328;20.878;2023-03-19T08:10:46;9.50;80.30
18252;DHT22;26917;52.328;20.878;2023-03-19T08:13:16;9.70;79.40
18252;DHT22;26917;52.328;20.878;2023-03-19T08:15:45;9.80;80.30
18252;DHT22;26917;52.328;20.878;2023-03-19T08:18:14;10.40;79.20
18252;DHT22;26917;52.328;20.878;2023-03-19T08:20:43;11.20;75.50
18252;DHT22;26917;52.328;20.878;2023-03-19T08:23:12;11.80;75.40
18252;DHT22;26917;52.328;20.878;2023-03-19T08:25:41;12.30;73.80
18252;DHT22;26917;52.328;20.878;2023-03-19T08:28:09;12.40;73.00
18252;DHT22;26917;52.328;20.878;2023-03-19T08:30:38;12.50;73.60
18252;DHT22;26917;52.328;20.878;2023-03-19T08:33:06;12.40;73.20
18252;DHT22;26917;52.328;20.878;2023-03-19T08:35:36;12.40;73.00
18252;DHT22;26917;52.328;20.878;2023-03-19T08:38:05;12.20;72.80
18252;DHT22;26917;52.328;20.878;2023-03-19T08:40:33;12.20;72.40
18252;DHT22;26917;52.328;20.878;2023-03-19T08:43:02;12.20;72.70
18252;DHT22;26917;52.328;20.878;2023-03-19T08:45:31;12.10;73.70
18252;DHT22;26917;52.328;20.878;2023-03-19T08:47:59;12.20;73.60
18252;DHT22;26917;52.328;20.878;2023-03-19T08:50:27;12.10;73.60
18252;DHT22;26917;52.328;20.878;2023-03-19T08:52:57;12.00;75.70
18252;DHT22;26917;52.328;20.878;2023-03-19T08:55:25;12.00;73.60
18252;DHT22;26917;52.328;20.878;2023-03-19T08:57:54;12.10;75.10
18252;DHT22;26917;52.328;20.878;2023-03-19T09:00:22;12.10;74.40
18252;DHT22;26917;52.328;20.878;2023-03-19T09:02:50;12.20;75.30
18252;DHT22;26917;52.328;20.878;2023-03-19T09:05:19;12.10;73.80
18252;DHT22;26917;52.328;20.878;2023-03-19T09:07:49;12.10;74.20
18252;DHT22;26917;52.328;20.878;2023-03-19T09:10:19;12.20;75.10
18252;DHT22;26917;52.328;20.878;2023-03-19T09:12:47;12.20;75.90
18252;DHT22;26917;52.328;20.878;2023-03-19T09:15:16;12.30;74.40
18252;DHT22;26917;52.328;20.878;2023-03-19T09:17:44;12.40;74.20
18252;DHT22;26917;52.328;20.878;2023-03-19T09:20:12;12.40;75.00
18252;DHT22;26917;52.328;20.878;2023-03-19T09:22:41;12.50;74.20
18252;DHT22;26917;52.328;20.878;2023-03-19T09:25:09;12.60;74.90
18252;DHT22;26917;52.328;20.878;2023-03-19T09:27:39;12.70;74.80
18252;DHT22;26917;52.328;20.878;2023-03-19T09:30:09;12.70;74.50
18252;DHT22;26917;52.328;20.878;2023-03-19T09:32:37;12.70;74.10
18252;DHT22;26917;52.328;20.878;2023-03-19T09:35:07;12.80;74.50
18252;DHT22;26917;52.328;20.878;2023-03-19T09:37:38;12.90;72.60
18252;DHT22;26917;52.328;20.878;2023-03-19T09:40:09;13.00;73.10
18252;DHT22;26917;52.328;20.878;2023-03-19T09:42:54;13.10;73.80
18252;DHT22;26917;52.328;20.878;2023-03-19T09:45:26;13.10;72.10
18252;DHT22;26917;52.328;20.878;2023-03-19T09:47:59;13.10;72.10
18252;DHT22;26917;52.328;20.878;2023-03-19T09:50:31;13.20;71.50
18252;DHT22;26917;52.328;20.878;2023-03-19T09:53:04;13.20;71.40
18252;DHT22;26917;52.328;20.878;2023-03-19T09:55:42;13.30;73.40
18252;DHT22;26917;52.328;20.878;2023-03-19T09:58:16;13.20;71.20
18252;DHT22;26917;52.328;20.878;2023-03-19T10:00:47;13.30;71.10
18252;DHT22;26917;52.328;20.878;2023-03-19T10:03:40;13.40;72.10
18252;DHT22;26917;52.328;20.878;2023-03-19T10:06:22;13.50;71.40
18252;DHT22;26917;52.328;20.878;2023-03-19T10:09:08;13.50;71.40
18252;DHT22;26917;52.328;20.878;2023-03-19T10:11:47;13.50;72.80
18252;DHT22;26917;52.328;20.878;2023-03-19T10:14:45;13.60;72.90
18252;DHT22;26917;52.328;20.878;2023-03-19T10:17:19;13.60;74.20
18252;DHT22;26917;52.328;20.878;2023-03-19T10:19:50;13.70;73.80
18252;DHT22;26917;52.328;20.878;2023-03-19T10:22:23;13.80;73.80
18252;DHT22;26917;52.328;20.878;2023-03-19T10:24:54;13.80;73.00
18252;DHT22;26917;52.328;20.878;2023-03-19T10:27:26;13.80;71.40
18252;DHT22;26917;52.328;20.878;2023-03-19T10:29:57;13.80;71.50
18252;DHT22;26917;52.328;20.878;2023-03-19T10:32:32;13.80;72.30
18252;DHT22;26917;52.328;20.878;2023-03-19T10:35:07;13.90;70.10
18252;DHT22;26917;52.328;20.878;2023-03-19T10:37:37;14.60;71.90
18252;DHT22;26917;52.328;20.878;2023-03-19T10:40:16;13.90;70.20
18252;DHT22;26917;52.328;20.878;2023-03-19T10:42:55;14.00;70.10
18252;DHT22;26917;52.328;20.878;2023-03-19T10:45:32;14.10;70.20
18252;DHT22;26917;52.328;20.878;2023-03-19T10:48:03;14.30;70.70
18252;DHT22;26917;52.328;20.878;2023-03-19T10:50:34;14.30;69.30
18252;DHT22;26917;52.328;20.878;2023-03-19T10:53:10;14.30;69.80
18252;DHT22;26917;52.328;20.878;2023-03-19T10:55:52;14.40;67.60
18252;DHT22;26917;52.328;20.878;2023-03-19T10:58:24;14.40;69.70
18252;DHT22;26917;52.328;20.878;2023-03-19T11:00:57;14.50;67.60
18252;DHT22;26917;52.328;20.878;2023-03-19T11:03:29;14.60;68.00
18252;DHT22;26917;52.328;20.878;2023-03-19T11:06:14;14.70;68.40
18252;DHT22;26917;52.328;20.878;2023-03-19T11:08:51;14.90;67.40
18252;DHT22;26917;52.328;20.878;2023-03-19T11:11:26;15.00;70.10
18252;DHT22;26917;52.328;20.878;2023-03-19T11:14:06;15.10;67.60
18252;DHT22;26917;52.328;20.878;2023-03-19T11:16:54;15.20;67.70
18252;DHT22;26917;52.328;20.878;2023-03-19T11:19:23;15.00;68.80
18252;DHT22;26917;52.328;20.878;2023-03-19T11:22:01;15.10;69.30
18252;DHT22;26917;52.328;20.878;2023-03-19T11:24:36;15.20;67.00
18252;DHT22;26917;52.328;20.878;2023-03-19T11:27:05;15.20;65.60
18252;DHT22;26917;52.328;20.878;2023-03-19T11:29:38;15.30;67.50
18252;DHT22;26917;52.328;20.878;2023-03-19T11:32:21;15.50;68.70
18252;DHT22;26917;52.328;20.878;2023-03-19T11:34:55;15.70;67.00
18252;DHT22;26917;52.328;20.878;2023-03-19T11:37:31;15.70;66.10
18252;DHT22;26917;52.328;20.878;2023-03-19T11:40:08;15.80;65.60
18252;DHT22;26917;52.328;20.878;2023-03-19T11:43:04;15.80;62.10
18252;DHT22;26917;52.328;20.878;2023-03-19T11:45:36;15.60;63.80
18252;DHT22;26917;52.328;20.878;2023-03-19T11:48:22;15.50;64.90
18252;DHT22;26917;52.328;20.878;2023-03-19T11:50:57;15.60;64.70
18252;DHT22;26917;52.328;20.878;2023-03-19T11:53:30;15.60;65.20
18252;DHT22;26917;52.328;20.878;2023-03-19T11:56:09;15.60;63.50
18252;DHT22;26917;52.328;20.878;2023-03-19T11:59:01;15.60;64.30
18252;DHT22;26917;52.328;20.878;2023-03-19T12:01:49;15.60;64.50
18252;DHT22;26917;52.328;20.878;2023-03-19T12:07:22;15.60;65.80
18252;DHT22;26917;52.328;20.878;2023-03-19T12:10:02;15.70;65.60
18252;DHT22;26917;52.328;20.878;2023-03-19T12:12:38;15.70;65.00
18252;DHT22;26917;52.328;20.878;2023-03-19T12:15:17;15.70;63.80
18252;DHT22;26917;52.328;20.878;2023-03-19T12:17:57;15.80;64.90
18252;DHT22;26917;52.328;20.878;2023-03-19T12:20:35;15.70;64.70
18252;DHT22;26917;52.328;20.878;2023-03-19T12:23:10;15.80;66.00
18252;DHT22;26917;52.328;20.878;2023-03-19T12:25:59;15.90;66.30
18252;DHT22;26917;52.328;20.878;2023-03-19T12:28:33;15.90;66.70
18252;DHT22;26917;52.328;20.878;2023-03-19T12:31:22;15.90;64.90
18252;DHT22;26917;52.328;20.878;2023-03-19T12:34:05;15.90;64.70
18252;DHT22;26917;52.328;20.878;2023-03-19T12:36:41;15.90;65.40
18252;DHT22;26917;52.328;20.878;2023-03-19T12:39:16;15.90;66.60
18252;DHT22;26917;52.328;20.878;2023-03-19T12:41:46;15.80;65.50
18252;DHT22;26917;52.328;20.878;2023-03-19T12:44:19;15.60;66.00
18252;DHT22;26917;52.328;20.878;2023-03-19T12:46:54;15.70;65.30
18252;DHT22;26917;52.328;20.878;2023-03-19T12:49:28;15.80;67.30
18252;DHT22;26917;52.328;20.878;2023-03-19T12:52:03;15.80;65.30
18252;DHT22;26917;52.328;20.878;2023-03-19T12:54:37;15.90;65.90
18252;DHT22;26917;52.328;20.878;2023-03-19T12:57:09;16.10;66.10
18252;DHT22;26917;52.328;20.878;2023-03-19T12:59:43;16.20;65.30
18252;DHT22;26917;52.328;20.878;2023-03-19T13:02:19;16.40;65.70
18252;DHT22;26917;52.328;20.878;2023-03-19T13:04:53;16.60;64.90
18252;DHT22;26917;52.328;20.878;2023-03-19T13:07:29;16.80;65.60
18252;DHT22;26917;52.328;20.878;2023-03-19T13:10:03;16.90;64.10
18252;DHT22;26917;52.328;20.878;2023-03-19T13:12:35;16.90;65.80
18252;DHT22;26917;52.328;20.878;2023-03-19T13:15:08;16.90;65.20
18252;DHT22;26917;52.328;20.878;2023-03-19T13:17:47;16.90;66.30
18252;DHT22;26917;52.328;20.878;2023-03-19T13:20:19;16.80;68.00
18252;DHT22;26917;52.328;20.878;2023-03-19T13:22:54;16.80;67.90
18252;DHT22;26917;52.328;20.878;2023-03-19T13:25:26;16.70;65.90
18252;DHT22;26917;52.328;20.878;2023-03-19T13:27:58;16.50;67.40
18252;DHT22;26917;52.328;20.878;2023-03-19T13:30:26;16.40;64.60
18252;DHT22;26917;52.328;20.878;2023-03-19T13:33:02;16.10;64.60
18252;DHT22;26917;52.328;20.878;2023-03-19T13:35:36;16.10;66.10
18252;DHT22;26917;52.328;20.878;2023-03-19T13:38:16;16.00;65.70
18252;DHT22;26917;52.328;20.878;2023-03-19T13:40:47;16.00;65.60
18252;DHT22;26917;52.328;20.878;2023-03-19T13:43:39;16.00;66.50
18252;DHT22;26917;52.328;20.878;2023-03-19T13:46:39;16.00;65.00
18252;DHT22;26917;52.328;20.878;2023-03-19T13:49:26;16.00;67.10
18252;DHT22;26917;52.328;20.878;2023-03-19T13:51:58;15.90;69.30
18252;DHT22;26917;52.328;20.878;2023-03-19T13:54:39;15.90;69.30
18252;DHT22;26917;52.328;20.878;2023-03-19T13:57:32;15.80;69.60
18252;DHT22;26917;52.328;20.878;2023-03-19T14:03:05;16.00;68.60
18252;DHT22;26917;52.328;20.878;2023-03-19T14:05:44;16.10;67.50
18252;DHT22;26917;52.328;20.878;2023-03-19T14:08:16;16.10;64.70
18252;DHT22;26917;52.328;20.878;2023-03-19T14:10:49;16.10;66.30
18252;DHT22;26917;52.328;20.878;2023-03-19T14:13:27;16.20;66.80
18252;DHT22;26917;52.328;20.878;2023-03-19T14:16:04;16.20;65.70
18252;DHT22;26917;52.328;20.878;2023-03-19T14:18:39;16.10;64.70
18252;DHT22;26917;52.328;20.878;2023-03-19T14:21:10;16.00;66.30
18252;DHT22;26917;52.328;20.878;2023-03-19T14:23:51;16.00;66.10
18252;DHT22;26917;52.328;20.878;2023-03-19T14:26:23;16.20;68.10
18252;DHT22;26917;52.328;20.878;2023-03-19T14:28:58;16.20;68.00
18252;DHT22;26917;52.328;20.878;2023-03-19T14:31:32;16.20;68.00
18252;DHT22;26917;52.328;20.878;2023-03-19T14:34:05;16.20;66.90
18252;DHT22;26917;52.328;20.878;2023-03-19T14:36:35;16.10;67.40
18252;DHT22;26917;52.328;20.878;2023-03-19T14:39:08;16.00;66.50
18252;DHT22;26917;52.328;20.878;2023-03-19T14:41:43;15.90;65.80
18252;DHT22;26917;52.328;20.878;2023-03-19T14:47:39;15.70;67.30
18252;DHT22;26917;52.328;20.878;2023-03-19T14:50:26;15.60;69.60
18252;DHT22;26917;52.328;20.878;2023-03-19T14:53:00;15.60;67.90
18252;DHT22;26917;52.328;20.878;2023-03-19T14:55:34;15.50;68.70
18252;DHT22;26917;52.328;20.878;2023-03-19T14:58:04;15.20;65.00
18252;DHT22;26917;52.328;20.878;2023-03-19T15:00:42;15.10;66.10
18252;DHT22;26917;52.328;20.878;2023-03-19T15:03:20;15.10;67.20
18252;DHT22;26917;52.328;20.878;2023-03-19T15:05:50;15.10;68.10
18252;DHT22;26917;52.328;20.878;2023-03-19T15:08:23;15.00;66.80
18252;DHT22;26917;52.328;20.878;2023-03-19T15:11:03;15.00;69.30
18252;DHT22;26917;52.328;20.878;2023-03-19T15:13:42;15.00;70.50
18252;DHT22;26917;52.328;20.878;2023-03-19T15:16:22;14.90;71.50
18252;DHT22;26917;52.328;20.878;2023-03-19T15:18:55;14.80;72.30
18252;DHT22;26917;52.328;20.878;2023-03-19T15:21:24;14.80;73.50
18252;DHT22;26917;52.328;20.878;2023-03-19T15:23:52;14.70;74.20
18252;DHT22;26917;52.328;20.878;2023-03-19T15:26:29;14.60;74.60
18252;DHT22;26917;52.328;20.878;2023-03-19T15:28:59;14.50;75.20
18252;DHT22;26917;52.328;20.878;2023-03-19T15:31:41;14.40;75.30
18252;DHT22;26917;52.328;20.878;2023-03-19T15:34:21;14.20;75.80
18252;DHT22;26917;52.328;20.878;2023-03-19T15:36:52;14.10;76.80
18252;DHT22;26917;52.328;20.878;2023-03-19T15:39:24;14.00;77.70
18252;DHT22;26917;52.328;20.878;2023-03-19T15:41:54;13.80;77.90
18252;DHT22;26917;52.328;20.878;2023-03-19T15:44:29;13.70;77.30
18252;DHT22;26917;52.328;20.878;2023-03-19T15:47:01;13.50;78.50
18252;DHT22;26917;52.328;20.878;2023-03-19T15:49:35;13.40;78.10
18252;DHT22;26917;52.328;20.878;2023-03-19T15:52:07;13.30;78.80
18252;DHT22;26917;52.328;20.878;2023-03-19T15:54:38;13.20;79.10
18252;DHT22;26917;52.328;20.878;2023-03-19T15:57:07;13.00;79.40
18252;DHT22;26917;52.328;20.878;2023-03-19T15:59:38;12.90;79.50
18252;DHT22;26917;52.328;20.878;2023-03-19T16:02:15;12.80;79.70
18252;DHT22;26917;52.328;20.878;2023-03-19T16:04:46;12.70;79.50
18252;DHT22;26917;52.328;20.878;2023-03-19T16:07:39;12.60;80.00
18252;DHT22;26917;52.328;20.878;2023-03-19T16:10:36;12.50;80.50